createdAt,value
2017-07-30T00:01:07.770Z,8.10
2017-07-30T00:03:35.923Z,8.70
2017-07-30T00:06:04.104Z,8.65
2017-07-30T00:08:32.299Z,8.75
2017-07-30T00:11:00.469Z,8.10
2017-07-30T00:13:28.648Z,8.52
2017-07-30T00:15:56.864Z,8.25
2017-07-30T00:18:25.014Z,8.73
2017-07-30T00:20:53.192Z,9.80
2017-07-30T00:23:21.383Z,8.98
2017-07-30T00:25:49.548Z,9.45
2017-07-30T00:28:17.721Z,9.07
2017-07-30T00:30:45.974Z,9.85
2017-07-30T00:33:14.147Z,9.55
2017-07-30T00:35:42.306Z,10.02
2017-07-30T00:38:10.512Z,9.70
2017-07-30T00:40:38.691Z,10.10
2017-07-30T00:43:06.865Z,9.40
2017-07-30T00:45:35.047Z,9.55
2017-07-30T00:48:03.222Z,10.00
2017-07-30T00:50:31.382Z,9.50
2017-07-30T00:52:59.589Z,9.30
2017-07-30T00:55:28.509Z,8.93
2017-07-30T00:57:56.678Z,8.95
2017-07-30T01:00:24.882Z,9.60
2017-07-30T01:02:53.030Z,8.77
2017-07-30T01:05:21.181Z,8.50
2017-07-30T01:07:50.133Z,9.48
2017-07-30T01:10:18.294Z,9.00
2017-07-30T01:12:46.467Z,8.90
2017-07-30T01:15:14.663Z,10.27
2017-07-30T01:17:42.821Z,9.10
2017-07-30T01:20:10.975Z,9.80
2017-07-30T01:22:39.149Z,9.32
2017-07-30T01:25:08.174Z,9.38
2017-07-30T01:27:36.368Z,10.10
2017-07-30T01:30:04.584Z,10.18
2017-07-30T01:32:32.753Z,9.95
2017-07-30T01:35:00.914Z,10.00
2017-07-30T01:37:29.901Z,11.02
2017-07-30T01:39:58.054Z,10.55
2017-07-30T01:42:26.218Z,10.93
2017-07-30T01:44:54.741Z,10.55
2017-07-30T01:47:23.723Z,10.73
2017-07-30T01:49:51.883Z,10.50
2017-07-30T01:52:20.086Z,10.70
2017-07-30T01:54:49.029Z,10.73
2017-07-30T01:57:17.220Z,10.82
2017-07-30T01:59:45.426Z,11.55
2017-07-30T02:02:14.349Z,11.98
2017-07-30T02:04:42.521Z,11.10
2017-07-30T02:07:10.730Z,11.27
2017-07-30T02:09:38.884Z,11.85
2017-07-30T02:12:07.069Z,12.02
2017-07-30T02:14:35.277Z,12.05
2017-07-30T02:17:03.457Z,12.00
2017-07-30T02:19:32.383Z,11.35
2017-07-30T02:22:00.576Z,11.50
2017-07-30T02:24:28.753Z,12.25
2017-07-30T02:26:56.941Z,12.37
2017-07-30T02:29:25.155Z,12.23
2017-07-30T02:31:54.078Z,11.60
2017-07-30T02:34:22.234Z,12.20
2017-07-30T02:36:51.186Z,11.12
2017-07-30T02:39:19.347Z,12.05
2017-07-30T02:41:47.508Z,11.88
2017-07-30T02:44:15.694Z,12.60
2017-07-30T02:46:43.847Z,13.10
2017-07-30T02:49:12.017Z,12.85
2017-07-30T02:51:40.212Z,11.90
2017-07-30T02:54:08.388Z,12.68
2017-07-30T02:56:36.537Z,12.63
2017-07-30T02:59:04.742Z,13.40
2017-07-30T03:01:32.918Z,13.57
2017-07-30T03:04:01.080Z,12.70
2017-07-30T03:06:29.294Z,12.45
2017-07-30T03:08:57.454Z,13.95
2017-07-30T03:11:25.632Z,14.85
2017-07-30T03:13:53.815Z,14.10
2017-07-30T03:16:21.994Z,13.35
2017-07-30T03:18:50.145Z,13.25
2017-07-30T03:21:18.326Z,14.25
2017-07-30T03:23:46.481Z,13.73
2017-07-30T03:26:14.663Z,14.10
2017-07-30T03:28:42.865Z,12.93
2017-07-30T03:31:11.082Z,13.25
2017-07-30T03:33:39.237Z,11.85
2017-07-30T03:36:08.203Z,12.40
2017-07-30T03:38:36.376Z,13.52
2017-07-30T03:41:04.548Z,12.55
2017-07-30T03:43:32.738Z,13.65
2017-07-30T03:46:00.906Z,13.00
2017-07-30T03:48:29.075Z,12.35
2017-07-30T03:50:57.273Z,13.13
2017-07-30T03:53:26.215Z,12.35
2017-07-30T03:55:54.370Z,12.45
2017-07-30T03:58:22.553Z,13.15
2017-07-30T04:00:50.710Z,11.82
2017-07-30T04:03:18.884Z,12.05
2017-07-30T04:05:47.069Z,11.60
2017-07-30T04:08:15.253Z,11.07
2017-07-30T04:10:43.426Z,11.23
2017-07-30T04:13:11.618Z,10.63
2017-07-30T04:15:39.789Z,11.70
2017-07-30T04:18:07.942Z,10.85
2017-07-30T04:20:36.141Z,12.07
2017-07-30T04:23:04.295Z,10.98
2017-07-30T04:25:32.445Z,10.70
2017-07-30T04:28:01.390Z,11.82
2017-07-30T04:30:29.546Z,10.70
2017-07-30T04:32:57.694Z,10.68
2017-07-30T04:35:25.889Z,10.65
2017-07-30T04:37:54.043Z,10.15
2017-07-30T04:40:22.207Z,9.23
2017-07-30T04:42:51.165Z,9.32
2017-07-30T04:45:19.315Z,9.32
2017-07-30T04:47:47.493Z,9.23
2017-07-30T04:50:15.681Z,8.38
2017-07-30T04:52:43.831Z,8.52
2017-07-30T04:55:12.036Z,9.40
2017-07-30T04:57:40.237Z,8.93
2017-07-30T05:00:08.391Z,9.05
2017-07-30T05:02:36.560Z,7.65
2017-07-30T05:05:04.764Z,7.90
2017-07-30T05:07:33.700Z,8.30
2017-07-30T05:10:01.869Z,8.00
2017-07-30T05:12:30.047Z,7.10
2017-07-30T05:14:58.195Z,7.30
2017-07-30T05:17:26.349Z,7.40
2017-07-30T05:19:54.537Z,7.55
2017-07-30T05:22:23.474Z,7.35
2017-07-30T05:24:51.622Z,7.12
2017-07-30T05:27:19.818Z,7.18
2017-07-30T05:29:47.997Z,7.80
2017-07-30T05:32:16.171Z,7.55
2017-07-30T05:34:44.366Z,7.20
2017-07-30T05:37:12.529Z,7.47
2017-07-30T05:39:40.683Z,7.57
2017-07-30T05:42:08.863Z,7.53
2017-07-30T05:44:37.028Z,6.90
2017-07-30T05:47:05.201Z,6.65
2017-07-30T05:49:33.374Z,6.75
2017-07-30T05:52:01.522Z,7.05
2017-07-30T05:54:30.440Z,6.75
2017-07-30T05:56:58.630Z,6.37
2017-07-30T05:59:26.793Z,6.65
2017-07-30T06:01:54.938Z,6.18
2017-07-30T06:04:23.878Z,6.37
2017-07-30T06:06:52.049Z,6.40
2017-07-30T06:09:20.219Z,6.03
2017-07-30T06:11:48.417Z,6.25
2017-07-30T06:14:17.470Z,6.97
2017-07-30T06:16:45.637Z,6.40
2017-07-30T06:19:13.833Z,5.80
2017-07-30T06:21:42.001Z,6.53
2017-07-30T06:24:10.169Z,6.78
2017-07-30T06:26:38.345Z,6.35
2017-07-30T06:29:06.521Z,6.07
2017-07-30T06:31:34.718Z,6.22
2017-07-30T06:34:02.907Z,6.50
2017-07-30T06:36:31.073Z,6.35
2017-07-30T06:38:59.219Z,5.85
2017-07-30T06:41:27.419Z,5.87
2017-07-30T06:43:55.581Z,6.03
2017-07-30T06:46:23.759Z,5.65
2017-07-30T06:48:51.952Z,6.97
2017-07-30T06:51:20.120Z,6.47
2017-07-30T06:53:48.297Z,6.90
2017-07-30T06:56:16.486Z,6.62
2017-07-30T06:58:44.657Z,7.18
2017-07-30T07:01:12.822Z,7.12
2017-07-30T07:03:41.014Z,6.78
2017-07-30T07:06:09.180Z,7.55
2017-07-30T07:08:37.333Z,7.03
2017-07-30T07:11:05.524Z,8.02
2017-07-30T07:13:33.675Z,7.97
2017-07-30T07:16:01.841Z,7.85
2017-07-30T07:18:30.041Z,8.05
2017-07-30T07:20:58.210Z,7.95
2017-07-30T07:23:26.355Z,8.45
2017-07-30T07:25:54.531Z,8.40
2017-07-30T07:28:22.697Z,7.03
2017-07-30T07:30:50.850Z,7.97
2017-07-30T07:33:19.045Z,7.65
2017-07-30T07:35:47.224Z,8.25
2017-07-30T07:38:15.373Z,7.62
2017-07-30T07:40:43.570Z,7.30
2017-07-30T07:43:11.737Z,7.72
2017-07-30T07:45:40.657Z,7.47
2017-07-30T07:48:08.838Z,7.80
2017-07-30T07:50:37.005Z,8.07
2017-07-30T07:53:05.173Z,7.37
2017-07-30T07:55:33.348Z,7.55
2017-07-30T07:58:01.516Z,7.32
2017-07-30T08:00:29.682Z,7.47
2017-07-30T08:02:57.885Z,6.20
2017-07-30T08:05:26.057Z,6.28
2017-07-30T08:07:54.201Z,6.40
2017-07-30T08:10:23.183Z,6.37
2017-07-30T08:12:58.091Z,6.00
2017-07-30T08:15:26.293Z,5.70
2017-07-30T08:17:55.218Z,5.15
2017-07-30T08:20:23.385Z,5.32
2017-07-30T08:22:51.561Z,5.25
2017-07-30T08:25:19.717Z,5.57
2017-07-30T08:27:47.892Z,4.90
2017-07-30T08:30:16.075Z,4.93
2017-07-30T08:32:44.253Z,4.80
2017-07-30T08:35:12.428Z,5.30
2017-07-30T08:37:40.607Z,4.23
2017-07-30T08:40:08.773Z,4.90
2017-07-30T08:42:36.922Z,5.00
2017-07-30T08:45:05.882Z,4.60
2017-07-30T08:47:34.054Z,4.27
2017-07-30T08:50:02.204Z,4.43
2017-07-30T08:52:30.378Z,4.30
2017-07-30T08:54:58.527Z,4.20
2017-07-30T08:57:26.681Z,4.10
2017-07-30T08:59:55.653Z,4.40
2017-07-30T09:02:23.841Z,4.30
2017-07-30T09:04:52.002Z,4.70
2017-07-30T09:07:20.219Z,3.97
2017-07-30T09:09:48.398Z,4.20
2017-07-30T09:12:16.553Z,3.53
2017-07-30T09:14:45.517Z,4.80
2017-07-30T09:17:13.721Z,4.50
2017-07-30T09:19:42.643Z,4.40
2017-07-30T09:22:10.830Z,4.57
2017-07-30T09:24:38.990Z,4.30
2017-07-30T09:27:07.149Z,3.40
2017-07-30T09:29:35.362Z,4.12
2017-07-30T09:32:03.534Z,4.00
2017-07-30T09:34:31.694Z,4.30
2017-07-30T09:36:59.879Z,4.80
2017-07-30T09:39:28.051Z,4.03
2017-07-30T09:41:56.233Z,4.43
2017-07-30T09:44:24.406Z,3.90
2017-07-30T09:46:52.558Z,4.53
2017-07-30T09:49:20.726Z,4.70
2017-07-30T09:51:49.678Z,4.27
2017-07-30T09:54:17.853Z,3.67
2017-07-30T09:56:46.051Z,4.00
2017-07-30T09:59:14.246Z,4.50
2017-07-30T10:01:43.182Z,4.80
2017-07-30T10:04:11.351Z,4.20
2017-07-30T10:06:39.531Z,4.57
2017-07-30T10:09:07.701Z,4.70
2017-07-30T10:11:35.858Z,4.60
2017-07-30T10:14:04.035Z,4.70
2017-07-30T10:16:32.187Z,4.07
2017-07-30T10:19:00.343Z,4.37
2017-07-30T10:21:29.298Z,3.90
2017-07-30T10:23:57.465Z,4.33
2017-07-30T10:26:25.634Z,4.50
2017-07-30T10:28:53.822Z,4.40
2017-07-30T10:31:21.991Z,4.63
2017-07-30T10:33:50.163Z,4.90
2017-07-30T10:36:18.366Z,4.80
2017-07-30T10:38:46.523Z,5.07
2017-07-30T10:41:14.693Z,3.87
2017-07-30T10:43:42.872Z,4.17
2017-07-30T10:46:11.025Z,4.50
2017-07-30T10:48:39.189Z,4.20
2017-07-30T10:51:07.370Z,4.43
2017-07-30T10:53:35.564Z,4.43
2017-07-30T10:56:03.749Z,4.73
2017-07-30T10:58:31.946Z,4.80
2017-07-30T11:01:00.120Z,5.10
2017-07-30T11:03:28.270Z,6.40
2017-07-30T11:05:56.444Z,4.60
2017-07-30T11:08:24.592Z,3.97
2017-07-30T11:10:52.759Z,5.07
2017-07-30T11:13:20.957Z,3.63
2017-07-30T11:15:49.102Z,3.30
2017-07-30T11:18:17.282Z,4.00
2017-07-30T11:20:45.497Z,3.80
2017-07-30T11:23:13.662Z,4.00
2017-07-30T11:25:41.821Z,3.60
2017-07-30T11:28:10.022Z,4.00
2017-07-30T11:30:38.166Z,3.70
2017-07-30T11:33:06.310Z,4.20
2017-07-30T11:35:34.483Z,3.00
2017-07-30T11:38:02.660Z,3.53
2017-07-30T11:40:30.838Z,3.20
2017-07-30T11:42:59.006Z,3.27
2017-07-30T11:45:27.944Z,3.60
2017-07-30T11:47:56.107Z,3.20
2017-07-30T11:50:24.277Z,3.47
2017-07-30T11:52:52.481Z,3.20
2017-07-30T11:55:20.630Z,4.97
2017-07-30T11:57:48.819Z,3.43
2017-07-30T12:00:17.005Z,3.20
2017-07-30T12:02:45.156Z,3.63
2017-07-30T12:05:13.353Z,4.30
2017-07-30T12:07:41.521Z,3.67
2017-07-30T12:10:09.700Z,4.47
2017-07-30T12:12:43.703Z,3.60
2017-07-30T12:15:11.884Z,3.70
2017-07-30T12:17:40.061Z,3.50
2017-07-30T12:20:08.248Z,3.03
2017-07-30T12:22:36.399Z,4.43
2017-07-30T12:25:04.592Z,3.28
2017-07-30T12:27:32.770Z,4.55
2017-07-30T12:30:00.964Z,3.75
2017-07-30T12:32:29.133Z,3.65
2017-07-30T12:34:57.288Z,3.60
2017-07-30T12:37:25.459Z,3.70
2017-07-30T12:39:53.623Z,4.40
2017-07-30T12:42:21.821Z,4.82
2017-07-30T12:44:49.983Z,3.55
2017-07-30T12:47:18.159Z,2.55
2017-07-30T12:49:46.336Z,4.10
2017-07-30T12:52:14.511Z,3.45
2017-07-30T12:54:42.700Z,2.90
2017-07-30T12:57:10.877Z,2.95
2017-07-30T12:59:39.041Z,2.70
2017-07-30T13:02:07.227Z,3.12
2017-07-30T13:04:36.150Z,2.20
2017-07-30T13:07:04.348Z,3.10
2017-07-30T13:09:32.536Z,2.62
2017-07-30T13:12:00.713Z,2.40
2017-07-30T13:14:28.885Z,2.67
2017-07-30T13:16:57.061Z,2.60
2017-07-30T13:19:25.264Z,3.47
2017-07-30T13:21:53.437Z,2.47
2017-07-30T13:24:21.621Z,2.58
2017-07-30T13:26:50.563Z,2.12
2017-07-30T13:29:18.743Z,3.22
2017-07-30T13:31:46.912Z,2.40
2017-07-30T13:34:15.101Z,2.72
2017-07-30T13:36:43.303Z,2.70
2017-07-30T13:39:12.281Z,4.47
2017-07-30T13:41:40.441Z,2.72
2017-07-30T13:44:08.599Z,2.70
2017-07-30T13:46:36.768Z,3.25
2017-07-30T13:49:04.932Z,2.45
2017-07-30T13:51:33.115Z,4.03
2017-07-30T13:54:01.274Z,3.00
2017-07-30T13:56:29.435Z,2.42
2017-07-30T13:58:58.376Z,2.60
2017-07-30T14:01:26.536Z,2.60
2017-07-30T14:03:54.709Z,2.87
2017-07-30T14:06:22.858Z,4.30
2017-07-30T14:08:51.047Z,2.70
2017-07-30T14:11:19.222Z,2.60
2017-07-30T14:13:47.381Z,2.47
2017-07-30T14:16:16.325Z,3.15
2017-07-30T14:18:44.473Z,2.50
2017-07-30T14:21:12.648Z,3.25
2017-07-30T14:23:40.823Z,4.15
2017-07-30T14:26:08.970Z,3.20
2017-07-30T14:28:37.944Z,3.00
2017-07-30T14:31:06.113Z,2.42
2017-07-30T14:33:34.270Z,3.85
2017-07-30T14:36:02.450Z,3.08
2017-07-30T14:38:30.599Z,3.30
2017-07-30T14:40:58.797Z,3.30
2017-07-30T14:43:26.958Z,2.80
2017-07-30T14:45:55.114Z,2.70
2017-07-30T14:48:23.287Z,2.80
2017-07-30T14:50:51.458Z,2.47
2017-07-30T14:53:19.669Z,3.05
2017-07-30T14:55:47.824Z,2.65
2017-07-30T14:58:16.002Z,2.53
2017-07-30T15:00:44.196Z,2.60
2017-07-30T15:03:12.368Z,2.90
2017-07-30T15:05:40.541Z,3.10
2017-07-30T15:08:08.689Z,3.53
2017-07-30T15:10:36.845Z,2.70
2017-07-30T15:13:05.026Z,2.47
2017-07-30T15:15:33.209Z,3.25
2017-07-30T15:18:01.411Z,2.25
2017-07-30T15:20:29.577Z,2.47
2017-07-30T15:22:57.756Z,3.05
2017-07-30T15:25:25.927Z,3.45
2017-07-30T15:27:54.083Z,2.33
2017-07-30T15:30:22.293Z,2.70
2017-07-30T15:32:50.464Z,3.15
2017-07-30T15:35:18.641Z,3.00
2017-07-30T15:37:46.837Z,3.20
2017-07-30T15:40:15.777Z,3.58
2017-07-30T15:42:43.950Z,3.25
2017-07-30T15:45:12.094Z,3.05
2017-07-30T15:47:41.012Z,3.40
2017-07-30T15:50:09.183Z,3.42
2017-07-30T15:52:37.346Z,3.03
2017-07-30T15:55:05.534Z,2.72
2017-07-30T15:57:33.709Z,3.05
2017-07-30T16:00:01.863Z,3.00
2017-07-30T16:02:30.807Z,3.00
2017-07-30T16:04:59.000Z,3.20
2017-07-30T16:07:27.964Z,2.80
2017-07-30T16:09:56.121Z,3.20
2017-07-30T16:12:24.279Z,3.55
2017-07-30T16:14:52.445Z,3.17
2017-07-30T16:17:21.370Z,3.03
2017-07-30T16:19:49.554Z,3.40
2017-07-30T16:22:17.731Z,3.40
2017-07-30T16:24:45.909Z,3.92
2017-07-30T16:27:14.112Z,3.92
2017-07-30T16:29:42.276Z,2.97
2017-07-30T16:32:10.450Z,3.72
2017-07-30T16:34:38.622Z,3.45
2017-07-30T16:37:06.765Z,3.70
2017-07-30T16:39:34.944Z,4.82
2017-07-30T16:42:03.120Z,3.60
2017-07-30T16:44:31.302Z,4.55
2017-07-30T16:46:59.469Z,3.80
2017-07-30T16:49:27.636Z,3.70
2017-07-30T16:51:55.809Z,4.68
2017-07-30T16:54:23.972Z,5.40
2017-07-30T16:56:52.169Z,5.20
2017-07-30T16:59:20.322Z,3.60
2017-07-30T17:01:48.466Z,3.70
2017-07-30T17:04:16.663Z,4.45
2017-07-30T17:06:44.834Z,3.45
2017-07-30T17:09:13.016Z,4.20
2017-07-30T17:11:41.166Z,4.45
2017-07-30T17:14:09.310Z,5.70
2017-07-30T17:16:37.470Z,5.28
2017-07-30T17:19:05.636Z,5.40
2017-07-30T17:21:33.847Z,5.12
2017-07-30T17:24:02.023Z,5.32
2017-07-30T17:26:30.178Z,4.62
2017-07-30T17:28:58.374Z,5.35
2017-07-30T17:31:26.540Z,5.35
2017-07-30T17:33:54.733Z,5.78
2017-07-30T17:36:22.897Z,4.85
2017-07-30T17:38:51.069Z,6.85
2017-07-30T17:41:19.261Z,5.85
2017-07-30T17:43:48.199Z,5.55
2017-07-30T17:46:16.372Z,3.37
2017-07-30T17:48:44.762Z,4.18
2017-07-30T17:51:12.905Z,4.03
2017-07-30T17:53:41.076Z,2.87
2017-07-30T17:56:10.031Z,3.95
2017-07-30T17:58:38.265Z,6.90
2017-07-30T18:01:07.390Z,3.50
2017-07-30T18:03:35.567Z,2.95
2017-07-30T18:06:03.741Z,2.80
2017-07-30T18:08:31.961Z,3.55
2017-07-30T18:11:00.153Z,4.87
2017-07-30T18:13:28.354Z,3.95
2017-07-30T18:15:56.547Z,4.87
2017-07-30T18:18:24.720Z,5.20
2017-07-30T18:20:52.904Z,3.30
2017-07-30T18:23:21.191Z,3.03
2017-07-30T18:25:49.410Z,2.85
2017-07-30T18:28:17.740Z,2.33
2017-07-30T18:30:45.915Z,4.30
2017-07-30T18:33:14.100Z,2.62
2017-07-30T18:35:42.277Z,2.90
2017-07-30T18:38:11.285Z,3.80
2017-07-30T18:40:39.538Z,4.35
2017-07-30T18:43:07.743Z,5.50
2017-07-30T18:45:36.018Z,9.55
2017-07-30T18:48:04.382Z,7.87
2017-07-30T18:50:32.669Z,5.22
2017-07-30T18:53:01.034Z,5.95
2017-07-30T18:55:30.176Z,5.43
2017-07-30T18:57:58.650Z,4.25
2017-07-30T19:00:27.066Z,3.70
2017-07-30T19:02:55.557Z,5.28
2017-07-30T19:05:23.957Z,4.22
2017-07-30T19:07:52.427Z,3.40
2017-07-30T19:10:20.915Z,3.95
2017-07-30T19:12:49.418Z,3.58
2017-07-30T19:15:17.952Z,4.90
2017-07-30T19:17:46.800Z,7.90
2017-07-30T19:20:15.392Z,3.65
2017-07-30T19:22:44.665Z,5.43
2017-07-30T19:25:13.145Z,5.35
2017-07-30T19:27:41.660Z,5.35
2017-07-30T19:30:10.124Z,4.50
2017-07-30T19:32:38.641Z,5.60
2017-07-30T19:35:07.126Z,3.10
2017-07-30T19:37:35.598Z,3.80
2017-07-30T19:40:04.848Z,3.53
2017-07-30T19:42:33.351Z,2.72
2017-07-30T19:45:01.828Z,4.70
2017-07-30T19:47:30.329Z,4.70
2017-07-30T19:49:58.813Z,5.72
2017-07-30T19:52:27.306Z,4.20
2017-07-30T19:54:55.803Z,4.12
2017-07-30T19:57:24.277Z,3.15
2017-07-30T19:59:52.488Z,3.85
2017-07-30T20:02:20.656Z,5.00
2017-07-30T20:04:48.856Z,4.05
2017-07-30T20:07:17.021Z,4.60
2017-07-30T20:09:45.190Z,5.62
2017-07-30T20:12:13.386Z,4.30
2017-07-30T20:14:42.320Z,2.83
2017-07-30T20:17:10.516Z,3.33
2017-07-30T20:19:38.680Z,3.78
2017-07-30T20:22:06.836Z,3.58
2017-07-30T20:24:35.029Z,4.93
2017-07-30T20:27:03.192Z,2.97
2017-07-30T20:29:31.386Z,4.72
2017-07-30T20:31:59.533Z,3.42
2017-07-30T20:34:27.705Z,3.03
2017-07-30T20:36:55.949Z,3.05
2017-07-30T20:39:25.037Z,3.90
2017-07-30T20:41:53.285Z,4.00
2017-07-30T20:44:21.434Z,6.15
2017-07-30T20:46:49.610Z,4.62
2017-07-30T20:49:17.801Z,4.20
2017-07-30T20:51:45.970Z,3.03
2017-07-30T20:54:14.278Z,2.45
2017-07-30T20:56:42.595Z,4.40
2017-07-30T20:59:10.747Z,2.92
2017-07-30T21:01:39.785Z,2.95
2017-07-30T21:04:07.985Z,3.58
2017-07-30T21:06:36.311Z,3.10
2017-07-30T21:09:05.227Z,3.20
2017-07-30T21:11:33.392Z,4.00
2017-07-30T21:14:01.557Z,2.80
2017-07-30T21:16:30.138Z,5.22
2017-07-30T21:18:58.340Z,3.20
2017-07-30T21:21:26.515Z,4.25
2017-07-30T21:23:54.662Z,4.28
2017-07-30T21:26:22.839Z,4.20
2017-07-30T21:28:51.012Z,3.90
2017-07-30T21:31:19.189Z,4.60
2017-07-30T21:33:47.351Z,5.90
2017-07-30T21:36:16.288Z,4.45
2017-07-30T21:38:44.455Z,6.30
2017-07-30T21:41:12.619Z,3.30
2017-07-30T21:43:40.828Z,5.45
2017-07-30T21:46:08.990Z,3.97
2017-07-30T21:48:37.134Z,3.97
2017-07-30T21:51:05.299Z,5.00
2017-07-30T21:53:33.481Z,4.95
2017-07-30T21:56:01.667Z,5.32
2017-07-30T21:58:29.813Z,6.10
2017-07-30T22:00:57.975Z,5.22
2017-07-30T22:03:26.143Z,7.30
2017-07-30T22:05:54.308Z,4.60
2017-07-30T22:08:22.484Z,6.85
2017-07-30T22:10:50.649Z,6.00
2017-07-30T22:13:18.794Z,5.25
2017-07-30T22:15:46.960Z,5.60
2017-07-30T22:18:15.106Z,4.57
2017-07-30T22:20:44.465Z,5.25
2017-07-30T22:23:12.619Z,4.50
2017-07-30T22:25:40.770Z,6.45
2017-07-30T22:28:08.962Z,6.07
2017-07-30T22:30:37.118Z,6.60
2017-07-30T22:33:05.287Z,5.47
2017-07-30T22:35:34.252Z,5.93
2017-07-30T22:38:02.421Z,5.43
2017-07-30T22:40:30.598Z,5.90
2017-07-30T22:42:58.783Z,5.90
2017-07-30T22:45:26.929Z,7.30
2017-07-30T22:47:55.082Z,6.10
2017-07-30T22:50:23.258Z,7.37
2017-07-30T22:52:51.425Z,6.15
2017-07-30T22:55:19.570Z,5.07
2017-07-30T22:57:48.562Z,4.68
2017-07-30T23:00:16.734Z,4.40
2017-07-30T23:02:45.669Z,3.62
2017-07-30T23:05:13.868Z,4.80
2017-07-30T23:07:42.010Z,5.28
2017-07-30T23:10:10.627Z,4.87
2017-07-30T23:12:40.218Z,4.70
2017-07-30T23:15:08.794Z,4.82
2017-07-30T23:17:37.025Z,3.72
2017-07-30T23:20:06.005Z,4.47
2017-07-30T23:22:34.150Z,4.00
2017-07-30T23:25:02.290Z,4.12
2017-07-30T23:27:30.486Z,3.75
2017-07-30T23:29:58.638Z,3.80
2017-07-30T23:32:26.794Z,3.53
2017-07-30T23:34:55.751Z,4.00
2017-07-30T23:37:23.916Z,2.83
2017-07-30T23:39:52.057Z,3.62
2017-07-30T23:42:20.237Z,4.28
2017-07-30T23:44:48.385Z,4.37
2017-07-30T23:47:16.552Z,4.55
2017-07-30T23:49:44.746Z,3.03
2017-07-30T23:52:12.917Z,3.75
2017-07-30T23:54:41.065Z,3.53
2017-07-30T23:57:09.364Z,4.37
2017-07-30T23:59:38.280Z,3.47
